Terminal Aerodrome Forecast
Issued by NWS

Home | Current Version | Previous Version | Text Only | Print | Product List | Glossary On
Versions: 1 2 3 4 5 6 7 8 9 10 11 12
150
FTUS43 KMQT 181721
TAFSAW
TAF
KSAW 181721Z 1818/1918 20017G33KT P6SM FEW250
     FM182200 21015G27KT P6SM BKN250
     FM190000 22012G21KT P6SM SCT200
     FM190200 25009KT P6SM FEW200
     FM191600 27011G21KT P6SM FEW250=

USA.gov is the U.S. government's official web portal to all federal, state and local government web resources and services.